createdAt,value
2023-05-09T00:00:03.764Z,98.5
2023-05-09T00:01:09.993Z,98.5
2023-05-09T00:02:16.256Z,98.5
2023-05-09T00:03:22.588Z,98
2023-05-09T00:04:28.799Z,98.5
2023-05-09T00:05:34.101Z,98.5
2023-05-09T00:06:40.367Z,98.5
2023-05-09T00:07:46.642Z,99
2023-05-09T00:08:52.926Z,99
2023-05-09T00:09:59.180Z,99.5
2023-05-09T00:11:05.446Z,99.5
2023-05-09T00:12:11.728Z,99.5
2023-05-09T00:13:17.996Z,99.5
2023-05-09T00:14:24.280Z,99.5
2023-05-09T00:15:30.540Z,99.5
2023-05-09T00:16:35.835Z,99.5
2023-05-09T00:17:41.145Z,99.5
2023-05-09T00:18:47.433Z,99.5
2023-05-09T00:19:53.670Z,99.5
2023-05-09T00:20:59.958Z,99
2023-05-09T00:22:06.228Z,99
2023-05-09T00:23:12.496Z,99
2023-05-09T00:24:18.741Z,99
2023-05-09T00:25:25.024Z,99
2023-05-09T00:26:31.301Z,99
2023-05-09T00:27:37.590Z,99
2023-05-09T00:28:43.839Z,98.5
2023-05-09T00:29:50.142Z,98.5
2023-05-09T00:30:56.403Z,98.5
2023-05-09T00:32:02.701Z,98.5
2023-05-09T00:33:08.020Z,98.5
2023-05-09T00:34:14.218Z,98.5
2023-05-09T00:35:20.488Z,98.5
2023-05-09T00:36:26.768Z,98.5
2023-05-09T00:37:33.034Z,98.5
2023-05-09T00:38:39.384Z,98.5
2023-05-09T00:39:45.588Z,98.5
2023-05-09T00:40:51.923Z,98.5
2023-05-09T00:41:58.121Z,98.5
2023-05-09T00:43:04.398Z,98.5
2023-05-09T00:44:10.661Z,98.5
2023-05-09T00:45:16.932Z,98
2023-05-09T00:46:23.205Z,98
2023-05-09T00:47:28.495Z,98
2023-05-09T00:48:34.801Z,98
2023-05-09T00:49:41.029Z,98
2023-05-09T00:50:47.335Z,98
2023-05-09T00:51:53.579Z,98
2023-05-09T00:52:59.886Z,98
2023-05-09T00:54:06.139Z,98
2023-05-09T00:55:12.402Z,98
2023-05-09T00:56:18.664Z,98
2023-05-09T00:57:24.938Z,98
2023-05-09T00:58:31.207Z,98
2023-05-09T00:59:37.557Z,98
2023-05-09T01:00:43.773Z,98
2023-05-09T01:01:50.035Z,98
2023-05-09T01:02:55.340Z,98
2023-05-09T01:04:01.584Z,98
2023-05-09T01:05:07.854Z,98
2023-05-09T01:06:14.129Z,98
2023-05-09T01:07:20.408Z,98
2023-05-09T01:08:26.680Z,98
2023-05-09T01:09:33.090Z,97.5
2023-05-09T01:10:39.215Z,97.5
2023-05-09T01:11:45.502Z,97.5
2023-05-09T01:12:51.763Z,97.5
2023-05-09T01:13:58.034Z,97.5
2023-05-09T01:15:04.307Z,97.5
2023-05-09T01:16:10.582Z,97.5
2023-05-09T01:17:15.920Z,97.5
2023-05-09T01:18:22.137Z,97.5
2023-05-09T01:19:28.414Z,97.5
2023-05-09T01:20:34.673Z,97.5
2023-05-09T01:21:40.996Z,97.5
2023-05-09T01:22:47.253Z,97.5
2023-05-09T01:23:53.496Z,97.5
2023-05-09T01:24:59.809Z,97.5
2023-05-09T01:26:06.043Z,97.5
2023-05-09T01:27:12.308Z,97.5
2023-05-09T01:28:18.578Z,97.5
2023-05-09T01:29:24.849Z,97.5
2023-05-09T01:30:31.128Z,98
2023-05-09T01:31:36.476Z,98
2023-05-09T01:32:42.685Z,98
2023-05-09T01:33:48.951Z,98
2023-05-09T01:34:55.243Z,98
2023-05-09T01:36:01.521Z,98
2023-05-09T01:37:06.801Z,98
2023-05-09T01:38:13.078Z,98
2023-05-09T01:39:19.331Z,98.5
2023-05-09T01:40:25.685Z,98.5
2023-05-09T01:41:31.881Z,98.5
2023-05-09T01:42:38.171Z,98.5
2023-05-09T01:43:44.428Z,98.5
2023-05-09T01:44:50.782Z,98.5
2023-05-09T01:45:56.985Z,98.5
2023-05-09T01:47:03.262Z,98.5
2023-05-09T01:48:09.515Z,98.5
2023-05-09T01:49:15.783Z,98.5
2023-05-09T01:50:22.054Z,98.5
2023-05-09T01:51:27.342Z,98.5
2023-05-09T01:52:33.617Z,98.5
2023-05-09T01:53:39.957Z,98.5
2023-05-09T01:54:46.172Z,98.5
2023-05-09T01:55:51.450Z,98.5
2023-05-09T01:56:56.761Z,99
2023-05-09T01:58:02.045Z,99
2023-05-09T01:59:08.323Z,99
2023-05-09T02:00:14.610Z,99
2023-05-09T02:01:20.893Z,99
2023-05-09T02:02:27.232Z,99
2023-05-09T02:03:33.411Z,99
2023-05-09T02:04:39.693Z,99
2023-05-09T02:05:45.949Z,99
2023-05-09T02:06:52.216Z,99
2023-05-09T02:07:58.511Z,99
2023-05-09T02:09:04.777Z,99
2023-05-09T02:10:11.104Z,99
2023-05-09T02:11:17.321Z,99
2023-05-09T02:12:22.612Z,99
2023-05-09T02:13:28.868Z,99
2023-05-09T02:14:35.135Z,99
2023-05-09T02:15:41.417Z,99
2023-05-09T02:16:47.678Z,99
2023-05-09T02:17:53.951Z,99
2023-05-09T02:19:00.334Z,99
2023-05-09T02:20:06.505Z,99
2023-05-09T02:21:12.801Z,99
2023-05-09T02:22:19.043Z,99
2023-05-09T02:23:25.313Z,99
2023-05-09T02:24:31.586Z,99
2023-05-09T02:25:37.861Z,99
2023-05-09T02:26:43.134Z,99
2023-05-09T02:27:49.476Z,99
2023-05-09T02:28:55.685Z,99
2023-05-09T02:30:01.968Z,99
2023-05-09T02:31:08.230Z,99
2023-05-09T02:32:14.536Z,99
2023-05-09T02:33:20.805Z,99
2023-05-09T02:34:27.046Z,99
2023-05-09T02:35:33.333Z,99
2023-05-09T02:36:39.614Z,98.5
2023-05-09T02:37:45.861Z,98.5
2023-05-09T02:38:52.140Z,98.5
2023-05-09T02:39:58.433Z,98.5
2023-05-09T02:41:03.697Z,98.5
2023-05-09T02:42:09.972Z,98
2023-05-09T02:43:16.231Z,98
2023-05-09T02:44:22.513Z,98
2023-05-09T02:45:28.782Z,98
2023-05-09T02:46:35.056Z,97.5
2023-05-09T02:47:41.313Z,97.5
2023-05-09T02:48:47.632Z,97.5
2023-05-09T02:49:53.913Z,97.5
2023-05-09T02:51:00.213Z,97.5
2023-05-09T02:52:06.503Z,97.5
2023-05-09T02:53:12.701Z,97.5
2023-05-09T02:54:18.954Z,97.5
2023-05-09T02:55:24.284Z,97.5
2023-05-09T02:56:30.509Z,97.5
2023-05-09T02:57:36.786Z,97.5
2023-05-09T02:58:43.123Z,97.5
2023-05-09T02:59:49.398Z,97.5
2023-05-09T03:00:55.601Z,97.5
2023-05-09T03:02:01.875Z,97.5
2023-05-09T03:03:08.147Z,97.5
2023-05-09T03:04:14.423Z,98
2023-05-09T03:05:20.689Z,98
2023-05-09T03:06:26.963Z,98
2023-05-09T03:07:33.237Z,98
2023-05-09T03:08:39.506Z,98
2023-05-09T03:09:44.788Z,98
2023-05-09T03:10:51.078Z,98
2023-05-09T03:11:57.331Z,98
2023-05-09T03:13:03.615Z,98
2023-05-09T03:14:09.913Z,98
2023-05-09T03:15:16.150Z,98
2023-05-09T03:16:22.416Z,98
2023-05-09T03:17:28.708Z,98
2023-05-09T03:18:34.971Z,98
2023-05-09T03:19:41.247Z,98
2023-05-09T03:20:47.526Z,98.5
2023-05-09T03:21:53.784Z,98.5
2023-05-09T03:23:00.059Z,98.5
2023-05-09T03:24:05.339Z,98.5
2023-05-09T03:25:11.610Z,98.5
2023-05-09T03:26:17.981Z,98.5
2023-05-09T03:27:24.150Z,98.5
2023-05-09T03:28:30.459Z,98.5
2023-05-09T03:29:36.706Z,98.5
2023-05-09T03:30:43.011Z,98.5
2023-05-09T03:31:49.239Z,98.5
2023-05-09T03:32:55.525Z,98.5
2023-05-09T03:34:01.804Z,98.5
2023-05-09T03:35:08.087Z,98.5
2023-05-09T03:36:14.323Z,98.5
2023-05-09T03:37:20.597Z,98.5
2023-05-09T03:38:25.892Z,98.5
2023-05-09T03:39:32.221Z,98.5
2023-05-09T03:40:38.521Z,98.5
2023-05-09T03:41:44.707Z,98.5
2023-05-09T03:42:50.975Z,98.5
2023-05-09T03:43:57.368Z,98.5
2023-05-09T03:45:03.524Z,98.5
2023-05-09T03:46:09.805Z,98.5
2023-05-09T03:47:16.120Z,98.5
2023-05-09T03:48:22.343Z,98.5
2023-05-09T03:49:28.609Z,98.5
2023-05-09T03:50:34.940Z,98.5
2023-05-09T03:51:40.187Z,98.5
2023-05-09T03:52:46.466Z,98.5
2023-05-09T03:53:52.725Z,98.5
2023-05-09T03:54:58.055Z,98.5
2023-05-09T03:56:04.353Z,98.5
2023-05-09T03:57:10.551Z,98.5
2023-05-09T03:58:16.885Z,98.5
2023-05-09T03:59:23.166Z,98.5
2023-05-09T04:00:29.374Z,98.5
2023-05-09T04:01:35.639Z,98
2023-05-09T04:02:41.927Z,98
2023-05-09T04:03:48.185Z,98
2023-05-09T04:04:54.459Z,98
2023-05-09T04:06:00.729Z,98
2023-05-09T04:07:07.023Z,98
2023-05-09T04:08:13.328Z,98
2023-05-09T04:09:18.559Z,98
2023-05-09T04:10:24.828Z,98
2023-05-09T04:11:31.107Z,98
2023-05-09T04:12:37.377Z,98
2023-05-09T04:13:43.656Z,98
2023-05-09T04:14:49.926Z,98
2023-05-09T04:15:56.228Z,98
2023-05-09T04:17:02.480Z,98
2023-05-09T04:18:08.761Z,98
2023-05-09T04:19:15.014Z,98
2023-05-09T04:20:21.278Z,98
2023-05-09T04:21:27.548Z,98
2023-05-09T04:22:33.839Z,98
2023-05-09T04:23:39.127Z,98
2023-05-09T04:24:45.385Z,98
2023-05-09T04:25:51.686Z,98
2023-05-09T04:26:57.926Z,98
2023-05-09T04:28:04.200Z,98
2023-05-09T04:29:10.482Z,98
2023-05-09T04:30:16.747Z,98
2023-05-09T04:31:23.024Z,98
2023-05-09T04:32:29.300Z,98
2023-05-09T04:33:35.557Z,98
2023-05-09T04:34:41.831Z,98
2023-05-09T04:35:48.099Z,98
2023-05-09T04:36:54.387Z,97.5
2023-05-09T04:37:59.658Z,97.5
2023-05-09T04:39:05.937Z,97.5
2023-05-09T04:40:12.200Z,97.5
2023-05-09T04:41:18.486Z,97.5
2023-05-09T04:42:24.739Z,97.5
2023-05-09T04:43:31.019Z,97.5
2023-05-09T04:44:37.293Z,97.5
2023-05-09T04:45:43.567Z,97.5
2023-05-09T04:46:49.841Z,97.5
2023-05-09T04:47:56.117Z,97.5
2023-05-09T04:49:02.424Z,97.5
2023-05-09T04:50:08.679Z,97.5
2023-05-09T04:51:14.951Z,97.5
2023-05-09T04:52:20.239Z,97
2023-05-09T04:53:26.511Z,97
2023-05-09T04:54:32.823Z,97
2023-05-09T04:55:39.026Z,97
2023-05-09T04:56:45.349Z,97
2023-05-09T04:57:51.573Z,97
2023-05-09T04:58:57.851Z,97
2023-05-09T05:00:04.109Z,97
2023-05-09T05:01:10.380Z,97
2023-05-09T05:02:16.652Z,97
2023-05-09T05:03:22.939Z,96.5
2023-05-09T05:04:29.201Z,96.5
2023-05-09T05:05:35.488Z,96.5
2023-05-09T05:06:40.760Z,96
2023-05-09T05:07:47.031Z,96
2023-05-09T05:08:53.313Z,96
2023-05-09T05:09:59.576Z,96
2023-05-09T05:11:05.929Z,96
2023-05-09T05:12:12.128Z,95.5
2023-05-09T05:13:18.381Z,95.5
2023-05-09T05:14:24.654Z,95.5
2023-05-09T05:15:30.978Z,95.5
2023-05-09T05:16:37.209Z,95.5
2023-05-09T05:17:43.487Z,95.5
2023-05-09T05:18:48.772Z,96
2023-05-09T05:19:55.046Z,95.5
2023-05-09T05:21:01.329Z,95.5
2023-05-09T05:22:07.585Z,95.5
2023-05-09T05:23:13.873Z,95.5
2023-05-09T05:24:20.164Z,95
2023-05-09T05:25:26.397Z,95
2023-05-09T05:26:32.724Z,95
2023-05-09T05:27:38.955Z,95
2023-05-09T05:28:45.247Z,95
2023-05-09T05:29:51.492Z,94.5
2023-05-09T05:30:57.759Z,94.5
2023-05-09T05:32:04.065Z,94.5
2023-05-09T05:33:09.361Z,94.5
2023-05-09T05:34:15.636Z,94.5
2023-05-09T05:35:21.861Z,94.5
2023-05-09T05:36:28.142Z,94.5
2023-05-09T05:37:34.411Z,94
2023-05-09T05:38:40.684Z,94
2023-05-09T05:39:46.969Z,93.5
2023-05-09T05:40:53.219Z,93.5
2023-05-09T05:41:59.551Z,93.5
2023-05-09T05:43:05.773Z,93.5
2023-05-09T05:44:12.028Z,93
2023-05-09T05:45:18.384Z,93
2023-05-09T05:46:24.693Z,93
2023-05-09T05:47:31.021Z,93
2023-05-09T05:48:36.182Z,92.5
2023-05-09T05:49:42.570Z,92.5
2023-05-09T05:50:48.699Z,92
2023-05-09T05:51:54.950Z,91.5
2023-05-09T05:53:01.269Z,91.5
2023-05-09T05:54:07.632Z,92
2023-05-09T05:55:13.765Z,92
2023-05-09T05:56:20.041Z,92
2023-05-09T05:57:26.392Z,91.5
2023-05-09T05:58:32.637Z,91
2023-05-09T05:59:38.902Z,90.5
2023-05-09T06:00:45.126Z,90
2023-05-09T06:01:51.395Z,90
2023-05-09T06:02:56.689Z,90
2023-05-09T06:04:01.994Z,90
2023-05-09T06:05:07.354Z,90
2023-05-09T06:06:13.733Z,89.5
2023-05-09T06:07:19.825Z,88.5
2023-05-09T06:08:26.134Z,88.5
2023-05-09T06:09:32.445Z,88
2023-05-09T06:10:38.714Z,88.5
2023-05-09T06:11:45.034Z,88.5
2023-05-09T06:12:51.181Z,88.5
2023-05-09T06:13:57.479Z,89
2023-05-09T06:15:03.748Z,89
2023-05-09T06:16:10.044Z,88
2023-05-09T06:17:16.278Z,88
2023-05-09T06:18:22.566Z,88
2023-05-09T06:19:28.841Z,88.5
2023-05-09T06:20:35.088Z,87.5
2023-05-09T06:21:40.449Z,86.5
2023-05-09T06:22:46.754Z,87
2023-05-09T06:23:52.918Z,87
2023-05-09T06:24:59.189Z,87
2023-05-09T06:26:04.512Z,86.5
2023-05-09T06:27:09.772Z,86.5
2023-05-09T06:28:16.052Z,85.5
2023-05-09T06:29:22.314Z,85
2023-05-09T06:30:28.592Z,85
2023-05-09T06:31:34.868Z,85
2023-05-09T06:32:41.134Z,85
2023-05-09T06:33:47.410Z,85
2023-05-09T06:34:53.681Z,84.5
2023-05-09T06:35:59.978Z,84.5
2023-05-09T06:37:06.223Z,84
2023-05-09T06:38:12.501Z,84.5
2023-05-09T06:39:18.772Z,85
2023-05-09T06:40:25.087Z,85
2023-05-09T06:41:30.319Z,85
2023-05-09T06:42:36.598Z,85
2023-05-09T06:43:42.871Z,85
2023-05-09T06:44:49.226Z,84.5
2023-05-09T06:45:55.413Z,85
2023-05-09T06:47:01.687Z,85
2023-05-09T06:48:07.968Z,85
2023-05-09T06:49:14.240Z,85
2023-05-09T06:50:20.500Z,84.5
2023-05-09T06:51:26.770Z,85
2023-05-09T06:52:33.054Z,84.5
2023-05-09T06:53:39.342Z,84
2023-05-09T06:54:45.588Z,84
2023-05-09T06:55:50.876Z,84.5
2023-05-09T06:56:57.218Z,84.5
2023-05-09T06:58:03.427Z,84.5
2023-05-09T06:59:09.704Z,84.5
2023-05-09T07:00:15.974Z,85
2023-05-09T07:01:22.237Z,86
2023-05-09T07:02:27.584Z,85
2023-05-09T07:03:32.874Z,85.5
2023-05-09T07:04:38.122Z,85
2023-05-09T07:05:44.399Z,85.5
2023-05-09T07:06:50.672Z,86
2023-05-09T07:07:56.958Z,85.5
2023-05-09T07:09:03.213Z,86
2023-05-09T07:10:09.494Z,85.5
2023-05-09T07:11:15.757Z,86
2023-05-09T07:12:22.095Z,86
2023-05-09T07:13:28.310Z,86
2023-05-09T07:14:34.572Z,86
2023-05-09T07:15:40.866Z,85.5
2023-05-09T07:16:47.125Z,85.5
2023-05-09T07:17:53.384Z,86
2023-05-09T07:18:58.678Z,85.5
2023-05-09T07:20:04.957Z,85
2023-05-09T07:21:11.222Z,85
2023-05-09T07:22:17.549Z,85.5
2023-05-09T07:23:23.761Z,85.5
2023-05-09T07:24:30.043Z,85
2023-05-09T07:25:35.330Z,85
2023-05-09T07:26:40.628Z,86.5
2023-05-09T07:27:46.899Z,85.5
2023-05-09T07:28:53.170Z,85
2023-05-09T07:29:59.437Z,85.5
2023-05-09T07:31:05.760Z,85.5
2023-05-09T07:32:11.991Z,84
2023-05-09T07:33:18.254Z,84
2023-05-09T07:34:24.553Z,84.5
2023-05-09T07:35:30.798Z,84.5
2023-05-09T07:36:37.074Z,84
2023-05-09T07:37:43.339Z,84
2023-05-09T07:38:49.615Z,85
2023-05-09T07:39:55.884Z,84.5
2023-05-09T07:41:01.173Z,84.5
2023-05-09T07:42:07.456Z,84
2023-05-09T07:43:13.723Z,83
2023-05-09T07:44:20.017Z,84
2023-05-09T07:45:26.255Z,84
2023-05-09T07:46:32.547Z,83.5
2023-05-09T07:47:37.929Z,83.5
2023-05-09T07:48:43.116Z,83
2023-05-09T07:49:49.407Z,83
2023-05-09T07:50:55.659Z,82.5
2023-05-09T07:52:01.937Z,83
2023-05-09T07:53:08.201Z,84.5
2023-05-09T07:54:14.483Z,84.5
2023-05-09T07:55:20.747Z,84
2023-05-09T07:56:27.021Z,83.5
2023-05-09T07:57:33.311Z,84
2023-05-09T07:58:39.589Z,84
2023-05-09T07:59:45.835Z,83.5
2023-05-09T08:00:52.112Z,83
2023-05-09T08:01:58.403Z,84
2023-05-09T08:03:03.662Z,83
2023-05-09T08:04:09.954Z,83
2023-05-09T08:05:16.215Z,82.5
2023-05-09T08:06:22.495Z,82
2023-05-09T08:07:28.752Z,82
2023-05-09T08:08:35.022Z,80.5
2023-05-09T08:09:40.320Z,81
2023-05-09T08:10:45.634Z,81
2023-05-09T08:11:51.892Z,82
2023-05-09T08:12:58.154Z,82.5
2023-05-09T08:14:04.436Z,82
2023-05-09T08:15:10.716Z,82
2023-05-09T08:16:16.975Z,82
2023-05-09T08:17:23.256Z,82.5
2023-05-09T08:18:29.515Z,81.5
2023-05-09T08:19:35.792Z,82
2023-05-09T08:20:42.084Z,82.5
2023-05-09T08:21:48.333Z,82
2023-05-09T08:22:54.609Z,82.5
2023-05-09T08:24:00.873Z,82.5
2023-05-09T08:25:06.174Z,80.5
2023-05-09T08:26:12.446Z,81
2023-05-09T08:27:18.706Z,81.5
2023-05-09T08:28:25.015Z,81
2023-05-09T08:29:31.260Z,82.5
2023-05-09T08:30:37.531Z,83
2023-05-09T08:31:42.838Z,83.5
2023-05-09T08:32:49.103Z,83
2023-05-09T08:33:55.380Z,83
2023-05-09T08:35:00.665Z,83
2023-05-09T08:36:07.063Z,82.5
2023-05-09T08:37:13.381Z,81.5
2023-05-09T08:38:19.609Z,82
2023-05-09T08:39:25.876Z,83.5
2023-05-09T08:40:32.173Z,80.5
2023-05-09T08:41:38.490Z,82
2023-05-09T08:42:44.688Z,81.5
2023-05-09T08:43:51.114Z,82.5
2023-05-09T08:44:57.317Z,82.5
2023-05-09T08:46:03.503Z,81.5
2023-05-09T08:47:09.813Z,81.5
2023-05-09T08:48:16.051Z,82.5
2023-05-09T08:49:22.327Z,81
2023-05-09T08:50:28.593Z,82
2023-05-09T08:51:33.882Z,81.5
2023-05-09T08:52:40.180Z,81.5
2023-05-09T08:53:46.422Z,80
2023-05-09T08:54:52.698Z,81.5
2023-05-09T08:55:58.975Z,81.5
2023-05-09T08:57:04.267Z,82.5
2023-05-09T08:58:09.618Z,81.5
2023-05-09T08:59:14.898Z,81
2023-05-09T09:00:20.299Z,79.5
2023-05-09T09:01:26.458Z,80
2023-05-09T09:02:32.689Z,80.5
2023-05-09T09:03:39.024Z,81.5
2023-05-09T09:04:45.246Z,81.5
2023-05-09T09:05:51.538Z,80
2023-05-09T09:06:57.814Z,80.5
2023-05-09T09:08:04.049Z,79.5
2023-05-09T09:09:10.401Z,81.5
2023-05-09T09:10:16.609Z,80.5
2023-05-09T09:11:22.951Z,82.5
2023-05-09T09:12:29.143Z,81
2023-05-09T09:13:35.413Z,80.5
2023-05-09T09:14:40.698Z,80
2023-05-09T09:15:46.970Z,80.5
2023-05-09T09:16:53.264Z,79.5
2023-05-09T09:18:00.102Z,78.5
2023-05-09T09:19:05.825Z,79.5
2023-05-09T09:20:11.158Z,79.5
2023-05-09T09:21:16.386Z,76.5
2023-05-09T09:22:22.683Z,77
2023-05-09T09:23:28.938Z,77.5
2023-05-09T09:24:35.197Z,76.5
2023-05-09T09:25:41.465Z,75.5
2023-05-09T09:26:47.730Z,77.5
2023-05-09T09:27:54.006Z,77
2023-05-09T09:29:00.272Z,78
2023-05-09T09:30:06.601Z,77
2023-05-09T09:31:13.002Z,75
2023-05-09T09:32:19.098Z,77.5
2023-05-09T09:33:25.378Z,78.5
2023-05-09T09:34:31.656Z,78.5
2023-05-09T09:35:37.912Z,78
2023-05-09T09:36:43.202Z,77.5
2023-05-09T09:37:49.472Z,77
2023-05-09T09:38:55.739Z,76.5
2023-05-09T09:40:02.020Z,77
2023-05-09T09:41:08.355Z,76
2023-05-09T09:42:13.591Z,76
2023-05-09T09:43:18.911Z,76.5
2023-05-09T09:44:24.261Z,76.5
2023-05-09T09:45:30.492Z,74
2023-05-09T09:46:36.723Z,75
2023-05-09T09:47:43.033Z,74
2023-05-09T09:48:49.268Z,74
2023-05-09T09:49:55.542Z,73.5
2023-05-09T09:51:01.798Z,76
2023-05-09T09:52:08.072Z,75
2023-05-09T09:53:14.382Z,75
2023-05-09T09:54:20.659Z,73
2023-05-09T09:55:26.888Z,74
2023-05-09T09:56:33.163Z,73
2023-05-09T09:57:39.454Z,73.5
2023-05-09T09:58:44.718Z,72.5
2023-05-09T09:59:51.021Z,73
2023-05-09T10:00:57.271Z,72
2023-05-09T10:02:03.536Z,73
2023-05-09T10:03:09.806Z,70.5
2023-05-09T10:04:16.076Z,71.5
2023-05-09T10:05:21.403Z,74.5
2023-05-09T10:06:26.670Z,74.5
2023-05-09T10:07:32.939Z,71.5
2023-05-09T10:08:39.221Z,73
2023-05-09T10:09:45.560Z,74
2023-05-09T10:10:51.766Z,73.5
2023-05-09T10:11:58.065Z,72.5
2023-05-09T10:13:04.329Z,72.5
2023-05-09T10:14:10.570Z,72.5
2023-05-09T10:15:16.840Z,73
2023-05-09T10:16:23.112Z,73.5
2023-05-09T10:17:29.377Z,72.5
2023-05-09T10:18:35.898Z,72
2023-05-09T10:19:42.074Z,72
2023-05-09T10:20:47.354Z,73
2023-05-09T10:21:53.549Z,71
2023-05-09T10:22:59.764Z,71
2023-05-09T10:24:06.059Z,70.5
2023-05-09T10:25:12.314Z,68
2023-05-09T10:26:18.778Z,69
2023-05-09T10:27:24.001Z,70
2023-05-09T10:28:29.344Z,71.5
2023-05-09T10:29:34.578Z,73.5
2023-05-09T10:30:40.785Z,74.5
2023-05-09T10:31:47.189Z,73.5
2023-05-09T10:32:53.387Z,72
2023-05-09T10:33:59.687Z,72
2023-05-09T10:35:05.924Z,74.5
2023-05-09T10:36:12.180Z,75
2023-05-09T10:37:18.501Z,74.5
2023-05-09T10:38:24.800Z,75.5
2023-05-09T10:39:31.006Z,74
2023-05-09T10:40:37.364Z,75
2023-05-09T10:41:43.444Z,73.5
2023-05-09T10:42:49.834Z,72.5
2023-05-09T10:43:55.193Z,73
2023-05-09T10:45:01.414Z,71.5
2023-05-09T10:46:07.684Z,72.5
2023-05-09T10:47:13.946Z,71.5
2023-05-09T10:48:20.173Z,72
2023-05-09T10:49:26.467Z,74
2023-05-09T10:50:31.777Z,73
2023-05-09T10:51:38.063Z,72.5
2023-05-09T10:52:43.235Z,73.5
2023-05-09T10:53:49.634Z,76.5
2023-05-09T10:54:55.797Z,75.5
2023-05-09T10:56:02.208Z,75.5
2023-05-09T10:57:08.333Z,75
2023-05-09T10:58:14.577Z,74.5
2023-05-09T10:59:20.890Z,73.5
2023-05-09T11:00:27.187Z,72.5
2023-05-09T11:01:33.400Z,71.5
2023-05-09T11:02:39.773Z,72
2023-05-09T11:03:46.056Z,71.5
2023-05-09T11:04:52.212Z,71.5
2023-05-09T11:05:58.600Z,73
2023-05-09T11:07:04.016Z,70
2023-05-09T11:08:10.137Z,69
2023-05-09T11:09:16.324Z,69.5
2023-05-09T11:10:22.677Z,68.5
2023-05-09T11:11:28.877Z,67
2023-05-09T11:12:34.273Z,68.5
2023-05-09T11:13:39.593Z,68.5
2023-05-09T11:14:45.846Z,67
2023-05-09T11:15:52.089Z,70
2023-05-09T11:16:58.334Z,69
2023-05-09T11:18:04.561Z,67.5
2023-05-09T11:19:10.854Z,69
2023-05-09T11:20:17.198Z,68
2023-05-09T11:21:23.368Z,68.5
2023-05-09T11:22:29.774Z,67.5
2023-05-09T11:23:35.933Z,68.5
2023-05-09T11:24:42.180Z,69
2023-05-09T11:25:48.643Z,66
2023-05-09T11:26:54.804Z,66
2023-05-09T11:28:00.096Z,68
2023-05-09T11:29:06.324Z,65
2023-05-09T11:30:12.783Z,64.5
2023-05-09T11:31:18.820Z,65.5
2023-05-09T11:32:25.210Z,65.5
2023-05-09T11:33:31.363Z,65
2023-05-09T11:34:36.772Z,64
2023-05-09T11:35:42.111Z,64.5
2023-05-09T11:36:48.308Z,60.5
2023-05-09T11:37:54.561Z,62.5
2023-05-09T11:39:00.900Z,63
2023-05-09T11:40:07.135Z,67.5
2023-05-09T11:41:13.417Z,65
2023-05-09T11:42:19.723Z,64.5
2023-05-09T11:43:26.011Z,64
2023-05-09T11:44:32.335Z,65
2023-05-09T11:45:38.502Z,67
2023-05-09T11:46:44.830Z,68.5
2023-05-09T11:47:51.061Z,64.5
2023-05-09T11:48:57.291Z,64
2023-05-09T11:50:02.628Z,67
2023-05-09T11:51:08.797Z,65
2023-05-09T11:52:15.051Z,65.5
2023-05-09T11:53:21.432Z,67.5
2023-05-09T11:54:27.721Z,66
2023-05-09T11:55:33.886Z,68.5
2023-05-09T11:56:39.309Z,68.5
2023-05-09T11:57:44.634Z,69.5
2023-05-09T11:58:49.748Z,63
2023-05-09T11:59:56.037Z,63.5
2023-05-09T12:01:02.303Z,63
2023-05-09T12:02:08.674Z,65.5
2023-05-09T12:03:14.964Z,64.5
2023-05-09T12:04:21.117Z,63.5
2023-05-09T12:05:27.469Z,63
2023-05-09T12:06:33.736Z,64.5
2023-05-09T12:07:39.919Z,65
2023-05-09T12:08:46.391Z,64.5
2023-05-09T12:09:52.515Z,64.5
2023-05-09T12:10:58.834Z,68.5
2023-05-09T12:12:05.016Z,70
2023-05-09T12:13:10.330Z,67
2023-05-09T12:14:16.600Z,61
2023-05-09T12:15:22.938Z,62
2023-05-09T12:16:29.229Z,64
2023-05-09T12:17:35.426Z,60
2023-05-09T12:18:41.745Z,61.5
2023-05-09T12:19:47.030Z,62
2023-05-09T12:20:52.410Z,60.5
2023-05-09T12:21:58.686Z,62
2023-05-09T12:23:04.922Z,60
2023-05-09T12:24:11.073Z,63
2023-05-09T12:25:17.414Z,61
2023-05-09T12:26:23.665Z,60.5
2023-05-09T12:27:29.891Z,59.5
2023-05-09T12:28:36.145Z,60
2023-05-09T12:29:42.430Z,59
2023-05-09T12:30:48.757Z,61.5
2023-05-09T12:31:54.993Z,63
2023-05-09T12:33:01.292Z,62.5
2023-05-09T12:34:07.531Z,61.5
2023-05-09T12:35:12.826Z,62.5
2023-05-09T12:36:19.132Z,62.5
2023-05-09T12:37:25.347Z,60
2023-05-09T12:38:31.735Z,61.5
2023-05-09T12:39:37.888Z,59
2023-05-09T12:40:44.217Z,58.5
2023-05-09T12:41:50.435Z,58.5
2023-05-09T12:42:55.884Z,66
2023-05-09T12:44:01.205Z,56.5
2023-05-09T12:45:06.484Z,57
2023-05-09T12:46:11.815Z,57
2023-05-09T12:47:18.046Z,59.5
2023-05-09T12:48:24.284Z,60
2023-05-09T12:49:30.632Z,57
2023-05-09T12:50:36.760Z,55.5
2023-05-09T12:51:42.995Z,59
2023-05-09T12:52:49.237Z,58.5
2023-05-09T12:53:55.538Z,58.5
2023-05-09T12:55:02.004Z,58.5
2023-05-09T12:56:08.158Z,58.5
2023-05-09T12:57:14.478Z,59.5
2023-05-09T12:58:20.633Z,60.5
2023-05-09T12:59:27.130Z,61.5
2023-05-09T13:00:32.262Z,57.5
2023-05-09T13:01:38.621Z,58
2023-05-09T13:02:44.872Z,57.5
2023-05-09T13:03:51.082Z,60.5
2023-05-09T13:04:57.274Z,61
2023-05-09T13:06:03.529Z,60
2023-05-09T13:07:08.910Z,61
2023-05-09T13:08:14.132Z,59
2023-05-09T13:09:20.442Z,58
2023-05-09T13:10:26.651Z,60.5
2023-05-09T13:11:33.022Z,60.5
2023-05-09T13:12:39.224Z,59
2023-05-09T13:13:45.478Z,58.5
2023-05-09T13:14:51.752Z,57.5
2023-05-09T13:15:58.029Z,58.5
2023-05-09T13:17:04.285Z,60.5
2023-05-09T13:18:10.560Z,56.5
2023-05-09T13:19:16.853Z,56.5
2023-05-09T13:20:23.102Z,57
2023-05-09T13:21:29.472Z,56.5
2023-05-09T13:22:34.655Z,56
2023-05-09T13:23:40.945Z,55
2023-05-09T13:24:47.226Z,55.5
2023-05-09T13:25:53.507Z,56.5
2023-05-09T13:26:59.812Z,56.5
2023-05-09T13:28:06.092Z,56
2023-05-09T13:29:11.424Z,55
2023-05-09T13:30:17.609Z,55.5
2023-05-09T13:31:22.944Z,54
2023-05-09T13:32:29.255Z,54.5
2023-05-09T13:33:34.521Z,58
2023-05-09T13:34:40.754Z,52.5
2023-05-09T13:35:47.135Z,58.5
2023-05-09T13:36:53.363Z,56.5
2023-05-09T13:37:59.590Z,56.5
2023-05-09T13:39:05.837Z,56.5
2023-05-09T13:40:12.115Z,58.5
2023-05-09T13:41:18.463Z,58.5
2023-05-09T13:42:24.658Z,56
2023-05-09T13:43:30.923Z,55.5
2023-05-09T13:44:37.298Z,54.5
2023-05-09T13:45:43.478Z,55.5
2023-05-09T13:46:49.963Z,50.5
2023-05-09T13:47:55.043Z,52
2023-05-09T13:49:01.289Z,53
2023-05-09T13:50:07.553Z,56
2023-05-09T13:51:13.827Z,55
2023-05-09T13:52:20.141Z,56.5
2023-05-09T13:53:25.463Z,57.5
2023-05-09T13:54:30.701Z,55.5
2023-05-09T13:55:35.988Z,55
2023-05-09T13:56:42.352Z,56
2023-05-09T13:57:48.538Z,54.5
2023-05-09T13:58:54.800Z,54
2023-05-09T14:00:01.107Z,55
2023-05-09T14:01:07.377Z,51
2023-05-09T14:02:13.727Z,55.5
2023-05-09T14:03:20.075Z,59
2023-05-09T14:04:26.175Z,57.5
2023-05-09T14:05:32.439Z,57
2023-05-09T14:06:38.707Z,54
2023-05-09T14:07:44.982Z,56
2023-05-09T14:08:51.257Z,55.5
2023-05-09T14:09:56.569Z,55
2023-05-09T14:11:02.933Z,54
2023-05-09T14:12:09.086Z,57
2023-05-09T14:13:15.349Z,54
2023-05-09T14:14:21.629Z,56.5
2023-05-09T14:15:27.898Z,58.5
2023-05-09T14:16:33.197Z,58.5
2023-05-09T14:17:38.492Z,61.5
2023-05-09T14:18:44.758Z,59
2023-05-09T14:19:51.034Z,59.5
2023-05-09T14:20:57.320Z,58.5
2023-05-09T14:22:03.575Z,60.5
2023-05-09T14:23:09.846Z,58
2023-05-09T14:24:16.125Z,59
2023-05-09T14:25:22.388Z,57.5
2023-05-09T14:26:28.669Z,56.5
2023-05-09T14:27:34.944Z,54.5
2023-05-09T14:28:41.211Z,57
2023-05-09T14:29:47.477Z,56.5
2023-05-09T14:30:53.793Z,60.5
2023-05-09T14:31:59.040Z,59.5
2023-05-09T14:33:05.320Z,58
2023-05-09T14:34:11.590Z,58
2023-05-09T14:35:17.853Z,59.5
2023-05-09T14:36:24.130Z,56
2023-05-09T14:37:30.437Z,57.5
2023-05-09T14:38:36.672Z,55.5
2023-05-09T14:39:42.017Z,57
2023-05-09T14:40:47.301Z,59
2023-05-09T14:41:52.618Z,60
2023-05-09T14:42:58.842Z,58.5
2023-05-09T14:44:05.106Z,59.5
2023-05-09T14:45:11.387Z,60
2023-05-09T14:46:17.649Z,57.5
2023-05-09T14:47:23.919Z,57.5
2023-05-09T14:48:30.199Z,59.5
2023-05-09T14:49:36.471Z,57.5
2023-05-09T14:50:42.735Z,55.5
2023-05-09T14:51:49.012Z,56
2023-05-09T14:52:55.277Z,56.5
2023-05-09T14:54:01.562Z,56
2023-05-09T14:55:07.826Z,56
2023-05-09T14:56:13.117Z,54.5
2023-05-09T14:57:19.373Z,55.5
2023-05-09T14:58:25.654Z,60
2023-05-09T14:59:31.937Z,60.5
2023-05-09T15:00:38.201Z,59
2023-05-09T15:01:44.492Z,59
2023-05-09T15:02:49.775Z,60.5
2023-05-09T15:03:55.062Z,59.5
2023-05-09T15:05:01.335Z,59
2023-05-09T15:06:07.652Z,58
2023-05-09T15:07:13.873Z,58
2023-05-09T15:08:20.157Z,58.5
2023-05-09T15:09:26.508Z,60